sensor_id;sensor_type;location;lat;lon;timestamp;P1;durP1;ratioP1;P2;durP2;ratioP2
9288;SDS011;4683;50.864;12.086;2023-06-14T00:00:38;4.77;;;4.37;;
9288;SDS011;4683;50.864;12.086;2023-06-14T00:03:08;4.93;;;4.43;;
9288;SDS011;4683;50.864;12.086;2023-06-14T00:05:39;5.47;;;4.13;;
9288;SDS011;4683;50.864;12.086;2023-06-14T00:08:09;4.80;;;4.37;;
9288;SDS011;4683;50.864;12.086;2023-06-14T00:10:37;5.20;;;4.70;;
9288;SDS011;4683;50.864;12.086;2023-06-14T00:13:08;4.93;;;4.43;;
9288;SDS011;4683;50.864;12.086;2023-06-14T00:15:37;4.87;;;4.10;;
9288;SDS011;4683;50.864;12.086;2023-06-14T00:22:14;6.27;;;4.07;;
9288;SDS011;4683;50.864;12.086;2023-06-14T00:24:42;5.67;;;4.47;;
9288;SDS011;4683;50.864;12.086;2023-06-14T00:27:12;4.97;;;4.47;;
9288;SDS011;4683;50.864;12.086;2023-06-14T00:29:41;4.40;;;4.10;;
9288;SDS011;4683;50.864;12.086;2023-06-14T00:32:10;4.97;;;4.47;;
9288;SDS011;4683;50.864;12.086;2023-06-14T00:34:38;5.13;;;4.63;;
9288;SDS011;4683;50.864;12.086;2023-06-14T00:37:07;5.27;;;4.53;;
9288;SDS011;4683;50.864;12.086;2023-06-14T00:39:37;4.80;;;4.40;;
9288;SDS011;4683;50.864;12.086;2023-06-14T00:42:07;5.57;;;4.50;;
9288;SDS011;4683;50.864;12.086;2023-06-14T00:44:36;4.80;;;4.40;;
9288;SDS011;4683;50.864;12.086;2023-06-14T00:47:04;6.07;;;4.50;;
9288;SDS011;4683;50.864;12.086;2023-06-14T00:49:33;4.87;;;4.47;;
9288;SDS011;4683;50.864;12.086;2023-06-14T00:52:03;4.90;;;4.37;;
9288;SDS011;4683;50.864;12.086;2023-06-14T00:54:32;7.57;;;4.80;;
9288;SDS011;4683;50.864;12.086;2023-06-14T00:57:03;4.97;;;4.50;;
9288;SDS011;4683;50.864;12.086;2023-06-14T00:59:33;5.90;;;4.57;;
9288;SDS011;4683;50.864;12.086;2023-06-14T01:02:06;4.90;;;4.50;;
9288;SDS011;4683;50.864;12.086;2023-06-14T01:04:34;4.90;;;4.47;;
9288;SDS011;4683;50.864;12.086;2023-06-14T01:07:05;4.87;;;4.37;;
9288;SDS011;4683;50.864;12.086;2023-06-14T01:09:44;5.97;;;4.70;;
9288;SDS011;4683;50.864;12.086;2023-06-14T01:12:31;5.57;;;4.53;;
9288;SDS011;4683;50.864;12.086;2023-06-14T01:15:06;6.47;;;4.97;;
9288;SDS011;4683;50.864;12.086;2023-06-14T01:17:41;5.90;;;4.83;;
9288;SDS011;4683;50.864;12.086;2023-06-14T01:20:13;5.30;;;4.80;;
9288;SDS011;4683;50.864;12.086;2023-06-14T01:22:50;5.07;;;4.37;;
9288;SDS011;4683;50.864;12.086;2023-06-14T01:25:20;5.70;;;4.60;;
9288;SDS011;4683;50.864;12.086;2023-06-14T01:27:49;7.23;;;4.83;;
9288;SDS011;4683;50.864;12.086;2023-06-14T01:30:22;5.10;;;4.70;;
9288;SDS011;4683;50.864;12.086;2023-06-14T01:32:52;6.50;;;4.40;;
9288;SDS011;4683;50.864;12.086;2023-06-14T01:35:22;5.33;;;4.83;;
9288;SDS011;4683;50.864;12.086;2023-06-14T01:37:52;5.33;;;4.90;;
9288;SDS011;4683;50.864;12.086;2023-06-14T01:40:21;4.97;;;4.43;;
9288;SDS011;4683;50.864;12.086;2023-06-14T01:42:51;6.10;;;4.37;;
9288;SDS011;4683;50.864;12.086;2023-06-14T01:45:21;6.00;;;4.90;;
9288;SDS011;4683;50.864;12.086;2023-06-14T01:47:51;5.63;;;4.90;;
9288;SDS011;4683;50.864;12.086;2023-06-14T01:50:20;4.93;;;4.43;;
9288;SDS011;4683;50.864;12.086;2023-06-14T01:52:49;5.27;;;4.77;;
9288;SDS011;4683;50.864;12.086;2023-06-14T01:55:19;6.20;;;5.07;;
9288;SDS011;4683;50.864;12.086;2023-06-14T01:57:51;8.77;;;5.10;;
9288;SDS011;4683;50.864;12.086;2023-06-14T02:00:20;5.10;;;4.67;;
9288;SDS011;4683;50.864;12.086;2023-06-14T02:02:48;6.50;;;5.13;;
9288;SDS011;4683;50.864;12.086;2023-06-14T02:05:20;5.87;;;5.27;;
9288;SDS011;4683;50.864;12.086;2023-06-14T02:07:49;6.13;;;4.63;;
9288;SDS011;4683;50.864;12.086;2023-06-14T02:10:21;5.13;;;4.67;;
9288;SDS011;4683;50.864;12.086;2023-06-14T02:12:49;5.87;;;4.90;;
9288;SDS011;4683;50.864;12.086;2023-06-14T02:15:17;5.87;;;5.23;;
9288;SDS011;4683;50.864;12.086;2023-06-14T02:17:47;5.40;;;4.80;;
9288;SDS011;4683;50.864;12.086;2023-06-14T02:20:17;5.23;;;4.70;;
9288;SDS011;4683;50.864;12.086;2023-06-14T02:22:45;6.37;;;4.80;;
9288;SDS011;4683;50.864;12.086;2023-06-14T02:25:14;5.80;;;5.30;;
9288;SDS011;4683;50.864;12.086;2023-06-14T02:31:46;6.97;;;5.00;;
9288;SDS011;4683;50.864;12.086;2023-06-14T02:34:15;6.30;;;5.03;;
9288;SDS011;4683;50.864;12.086;2023-06-14T02:36:45;5.53;;;5.03;;
9288;SDS011;4683;50.864;12.086;2023-06-14T02:39:14;5.53;;;4.97;;
9288;SDS011;4683;50.864;12.086;2023-06-14T02:41:43;5.43;;;4.93;;
9288;SDS011;4683;50.864;12.086;2023-06-14T02:44:12;6.27;;;5.03;;
9288;SDS011;4683;50.864;12.086;2023-06-14T02:46:44;6.00;;;5.17;;
9288;SDS011;4683;50.864;12.086;2023-06-14T02:49:15;5.43;;;4.93;;
9288;SDS011;4683;50.864;12.086;2023-06-14T02:51:44;6.43;;;5.60;;
9288;SDS011;4683;50.864;12.086;2023-06-14T02:54:13;6.10;;;5.50;;
9288;SDS011;4683;50.864;12.086;2023-06-14T02:56:41;5.70;;;5.20;;
9288;SDS011;4683;50.864;12.086;2023-06-14T02:59:14;6.00;;;5.40;;
9288;SDS011;4683;50.864;12.086;2023-06-14T03:01:43;6.10;;;5.50;;
9288;SDS011;4683;50.864;12.086;2023-06-14T03:04:13;5.70;;;5.20;;
9288;SDS011;4683;50.864;12.086;2023-06-14T03:06:43;5.77;;;4.70;;
9288;SDS011;4683;50.864;12.086;2023-06-14T03:09:16;5.70;;;5.20;;
9288;SDS011;4683;50.864;12.086;2023-06-14T03:11:45;5.33;;;4.93;;
9288;SDS011;4683;50.864;12.086;2023-06-14T03:14:14;6.77;;;5.33;;
9288;SDS011;4683;50.864;12.086;2023-06-14T03:16:47;7.60;;;4.80;;
9288;SDS011;4683;50.864;12.086;2023-06-14T03:19:16;7.77;;;5.17;;
9288;SDS011;4683;50.864;12.086;2023-06-14T03:21:45;5.20;;;4.80;;
9288;SDS011;4683;50.864;12.086;2023-06-14T03:24:13;6.03;;;5.20;;
9288;SDS011;4683;50.864;12.086;2023-06-14T03:26:42;6.67;;;5.13;;
9288;SDS011;4683;50.864;12.086;2023-06-14T03:29:10;5.40;;;4.90;;
9288;SDS011;4683;50.864;12.086;2023-06-14T03:31:55;8.03;;;5.30;;
9288;SDS011;4683;50.864;12.086;2023-06-14T03:34:26;6.20;;;5.40;;
9288;SDS011;4683;50.864;12.086;2023-06-14T03:36:56;5.60;;;5.10;;
9288;SDS011;4683;50.864;12.086;2023-06-14T03:39:26;5.43;;;4.93;;
9288;SDS011;4683;50.864;12.086;2023-06-14T03:41:57;5.37;;;4.80;;
9288;SDS011;4683;50.864;12.086;2023-06-14T03:44:26;6.63;;;5.33;;
9288;SDS011;4683;50.864;12.086;2023-06-14T03:46:54;5.13;;;4.57;;
9288;SDS011;4683;50.864;12.086;2023-06-14T03:49:28;6.13;;;5.30;;
9288;SDS011;4683;50.864;12.086;2023-06-14T03:51:56;5.43;;;4.70;;
9288;SDS011;4683;50.864;12.086;2023-06-14T03:54:25;5.17;;;4.63;;
9288;SDS011;4683;50.864;12.086;2023-06-14T03:56:55;5.40;;;4.83;;
9288;SDS011;4683;50.864;12.086;2023-06-14T03:59:25;5.23;;;4.83;;
9288;SDS011;4683;50.864;12.086;2023-06-14T04:01:54;5.07;;;4.67;;
9288;SDS011;4683;50.864;12.086;2023-06-14T04:04:24;4.83;;;4.30;;
9288;SDS011;4683;50.864;12.086;2023-06-14T04:06:55;6.00;;;4.90;;
9288;SDS011;4683;50.864;12.086;2023-06-14T04:09:26;6.00;;;4.80;;
9288;SDS011;4683;50.864;12.086;2023-06-14T04:11:56;4.90;;;4.50;;
9288;SDS011;4683;50.864;12.086;2023-06-14T04:14:25;5.63;;;4.13;;
9288;SDS011;4683;50.864;12.086;2023-06-14T04:16:54;4.47;;;4.10;;
9288;SDS011;4683;50.864;12.086;2023-06-14T04:19:22;4.80;;;4.30;;
9288;SDS011;4683;50.864;12.086;2023-06-14T04:21:51;5.63;;;4.47;;
9288;SDS011;4683;50.864;12.086;2023-06-14T04:24:22;4.93;;;4.23;;
9288;SDS011;4683;50.864;12.086;2023-06-14T04:26:57;4.47;;;4.07;;
9288;SDS011;4683;50.864;12.086;2023-06-14T04:29:27;4.97;;;4.43;;
9288;SDS011;4683;50.864;12.086;2023-06-14T04:31:55;4.47;;;4.07;;
9288;SDS011;4683;50.864;12.086;2023-06-14T04:34:27;5.20;;;3.97;;
9288;SDS011;4683;50.864;12.086;2023-06-14T04:36:59;4.50;;;4.10;;
9288;SDS011;4683;50.864;12.086;2023-06-14T04:39:29;4.20;;;3.80;;
9288;SDS011;4683;50.864;12.086;2023-06-14T04:42:02;4.83;;;4.33;;
9288;SDS011;4683;50.864;12.086;2023-06-14T04:44:32;4.53;;;4.13;;
9288;SDS011;4683;50.864;12.086;2023-06-14T04:47:01;4.70;;;4.30;;
9288;SDS011;4683;50.864;12.086;2023-06-14T04:49:30;4.43;;;4.00;;
9288;SDS011;4683;50.864;12.086;2023-06-14T04:51:59;4.07;;;3.50;;
9288;SDS011;4683;50.864;12.086;2023-06-14T04:54:32;4.50;;;4.03;;
9288;SDS011;4683;50.864;12.086;2023-06-14T04:57:03;5.00;;;3.93;;
9288;SDS011;4683;50.864;12.086;2023-06-14T04:59:32;4.17;;;3.87;;
9288;SDS011;4683;50.864;12.086;2023-06-14T05:02:01;5.23;;;4.03;;
9288;SDS011;4683;50.864;12.086;2023-06-14T05:04:32;4.57;;;4.03;;
9288;SDS011;4683;50.864;12.086;2023-06-14T05:07:06;4.83;;;4.00;;
9288;SDS011;4683;50.864;12.086;2023-06-14T05:09:38;4.40;;;4.00;;
9288;SDS011;4683;50.864;12.086;2023-06-14T05:12:07;4.10;;;3.80;;
9288;SDS011;4683;50.864;12.086;2023-06-14T05:14:35;5.70;;;4.20;;
9288;SDS011;4683;50.864;12.086;2023-06-14T05:17:05;4.53;;;4.13;;
9288;SDS011;4683;50.864;12.086;2023-06-14T05:19:35;4.20;;;3.90;;
9288;SDS011;4683;50.864;12.086;2023-06-14T05:22:04;4.10;;;3.80;;
9288;SDS011;4683;50.864;12.086;2023-06-14T05:24:33;4.27;;;3.77;;
9288;SDS011;4683;50.864;12.086;2023-06-14T05:27:04;5.47;;;3.90;;
9288;SDS011;4683;50.864;12.086;2023-06-14T05:29:33;4.00;;;3.70;;
9288;SDS011;4683;50.864;12.086;2023-06-14T05:32:02;5.57;;;4.03;;
9288;SDS011;4683;50.864;12.086;2023-06-14T05:34:32;5.30;;;4.60;;
9288;SDS011;4683;50.864;12.086;2023-06-14T05:37:09;5.97;;;4.10;;
9288;SDS011;4683;50.864;12.086;2023-06-14T05:39:38;5.00;;;4.60;;
9288;SDS011;4683;50.864;12.086;2023-06-14T05:42:10;4.87;;;4.33;;
9288;SDS011;4683;50.864;12.086;2023-06-14T05:44:39;5.33;;;4.30;;
9288;SDS011;4683;50.864;12.086;2023-06-14T05:47:10;4.50;;;4.10;;
9288;SDS011;4683;50.864;12.086;2023-06-14T05:49:39;7.20;;;4.30;;
9288;SDS011;4683;50.864;12.086;2023-06-14T05:52:08;4.90;;;4.50;;
9288;SDS011;4683;50.864;12.086;2023-06-14T05:54:39;5.00;;;4.60;;
9288;SDS011;4683;50.864;12.086;2023-06-14T05:57:07;4.87;;;4.47;;
9288;SDS011;4683;50.864;12.086;2023-06-14T05:59:38;6.00;;;4.33;;
9288;SDS011;4683;50.864;12.086;2023-06-14T06:02:07;5.00;;;4.47;;
9288;SDS011;4683;50.864;12.086;2023-06-14T06:04:36;4.63;;;4.17;;
9288;SDS011;4683;50.864;12.086;2023-06-14T06:07:04;5.73;;;4.77;;
9288;SDS011;4683;50.864;12.086;2023-06-14T06:09:33;4.90;;;4.50;;
9288;SDS011;4683;50.864;12.086;2023-06-14T06:12:01;5.13;;;4.63;;
9288;SDS011;4683;50.864;12.086;2023-06-14T06:14:34;4.83;;;4.40;;
9288;SDS011;4683;50.864;12.086;2023-06-14T06:17:03;4.90;;;4.50;;
9288;SDS011;4683;50.864;12.086;2023-06-14T06:19:34;5.60;;;4.97;;
9288;SDS011;4683;50.864;12.086;2023-06-14T06:22:02;5.63;;;5.03;;
9288;SDS011;4683;50.864;12.086;2023-06-14T06:24:32;5.57;;;5.07;;
9288;SDS011;4683;50.864;12.086;2023-06-14T06:27:03;6.03;;;4.67;;
9288;SDS011;4683;50.864;12.086;2023-06-14T06:29:36;5.00;;;4.60;;
9288;SDS011;4683;50.864;12.086;2023-06-14T06:32:04;5.30;;;4.80;;
9288;SDS011;4683;50.864;12.086;2023-06-14T06:34:35;5.80;;;4.97;;
9288;SDS011;4683;50.864;12.086;2023-06-14T06:37:04;5.80;;;5.00;;
9288;SDS011;4683;50.864;12.086;2023-06-14T06:39:34;4.90;;;4.57;;
9288;SDS011;4683;50.864;12.086;2023-06-14T06:42:04;5.20;;;4.80;;
9288;SDS011;4683;50.864;12.086;2023-06-14T06:44:32;5.50;;;5.00;;
9288;SDS011;4683;50.864;12.086;2023-06-14T06:47:03;5.60;;;5.03;;
9288;SDS011;4683;50.864;12.086;2023-06-14T06:49:32;5.80;;;5.17;;
9288;SDS011;4683;50.864;12.086;2023-06-14T06:52:02;6.03;;;4.80;;
9288;SDS011;4683;50.864;12.086;2023-06-14T06:54:33;5.03;;;4.63;;
9288;SDS011;4683;50.864;12.086;2023-06-14T06:57:02;6.13;;;5.20;;
9288;SDS011;4683;50.864;12.086;2023-06-14T06:59:35;5.77;;;5.00;;
9288;SDS011;4683;50.864;12.086;2023-06-14T07:02:04;5.63;;;5.13;;
9288;SDS011;4683;50.864;12.086;2023-06-14T07:04:33;5.80;;;5.20;;
9288;SDS011;4683;50.864;12.086;2023-06-14T07:07:04;5.50;;;5.00;;
9288;SDS011;4683;50.864;12.086;2023-06-14T07:09:35;7.00;;;5.10;;
9288;SDS011;4683;50.864;12.086;2023-06-14T07:12:04;5.77;;;5.27;;
9288;SDS011;4683;50.864;12.086;2023-06-14T07:14:36;5.50;;;5.00;;
9288;SDS011;4683;50.864;12.086;2023-06-14T07:17:05;5.60;;;5.10;;
9288;SDS011;4683;50.864;12.086;2023-06-14T07:19:33;5.53;;;4.70;;
9288;SDS011;4683;50.864;12.086;2023-06-14T07:22:02;5.13;;;4.60;;
9288;SDS011;4683;50.864;12.086;2023-06-14T07:24:31;5.03;;;4.63;;
9288;SDS011;4683;50.864;12.086;2023-06-14T07:27:02;5.50;;;4.97;;
9288;SDS011;4683;50.864;12.086;2023-06-14T07:29:31;5.33;;;4.93;;
9288;SDS011;4683;50.864;12.086;2023-06-14T07:32:01;4.53;;;4.23;;
9288;SDS011;4683;50.864;12.086;2023-06-14T07:34:31;5.63;;;5.13;;
9288;SDS011;4683;50.864;12.086;2023-06-14T07:37:00;5.40;;;5.00;;
9288;SDS011;4683;50.864;12.086;2023-06-14T07:39:29;5.10;;;4.63;;
9288;SDS011;4683;50.864;12.086;2023-06-14T07:41:58;4.90;;;4.47;;
9288;SDS011;4683;50.864;12.086;2023-06-14T07:44:29;5.03;;;4.53;;
9288;SDS011;4683;50.864;12.086;2023-06-14T07:46:58;5.00;;;4.50;;
9288;SDS011;4683;50.864;12.086;2023-06-14T07:49:29;5.50;;;5.00;;
9288;SDS011;4683;50.864;12.086;2023-06-14T07:51:59;4.70;;;4.30;;
9288;SDS011;4683;50.864;12.086;2023-06-14T07:54:27;5.20;;;4.57;;
9288;SDS011;4683;50.864;12.086;2023-06-14T07:56:57;5.43;;;4.97;;
9288;SDS011;4683;50.864;12.086;2023-06-14T07:59:26;4.77;;;4.37;;
9288;SDS011;4683;50.864;12.086;2023-06-14T08:01:56;5.20;;;4.47;;
9288;SDS011;4683;50.864;12.086;2023-06-14T08:04:26;5.50;;;5.00;;
9288;SDS011;4683;50.864;12.086;2023-06-14T08:06:58;4.70;;;4.30;;
9288;SDS011;4683;50.864;12.086;2023-06-14T08:09:29;4.87;;;4.47;;
9288;SDS011;4683;50.864;12.086;2023-06-14T08:12:00;5.30;;;4.80;;
9288;SDS011;4683;50.864;12.086;2023-06-14T08:14:28;4.73;;;4.33;;
9288;SDS011;4683;50.864;12.086;2023-06-14T08:16:57;5.00;;;4.37;;
9288;SDS011;4683;50.864;12.086;2023-06-14T08:19:27;4.80;;;4.40;;
9288;SDS011;4683;50.864;12.086;2023-06-14T08:21:56;4.43;;;4.03;;
9288;SDS011;4683;50.864;12.086;2023-06-14T08:24:25;5.50;;;4.97;;
9288;SDS011;4683;50.864;12.086;2023-06-14T08:26:55;5.30;;;4.90;;
9288;SDS011;4683;50.864;12.086;2023-06-14T08:29:26;4.87;;;4.43;;
9288;SDS011;4683;50.864;12.086;2023-06-14T08:31:56;4.87;;;4.47;;
9288;SDS011;4683;50.864;12.086;2023-06-14T08:34:27;5.07;;;4.60;;
9288;SDS011;4683;50.864;12.086;2023-06-14T08:37:00;7.10;;;4.83;;
9288;SDS011;4683;50.864;12.086;2023-06-14T08:39:28;5.47;;;4.93;;
9288;SDS011;4683;50.864;12.086;2023-06-14T08:41:57;6.43;;;4.80;;
9288;SDS011;4683;50.864;12.086;2023-06-14T08:44:29;5.90;;;4.73;;
9288;SDS011;4683;50.864;12.086;2023-06-14T08:46:59;5.20;;;4.43;;
9288;SDS011;4683;50.864;12.086;2023-06-14T08:49:31;5.87;;;4.40;;
9288;SDS011;4683;50.864;12.086;2023-06-14T08:52:02;5.00;;;4.50;;
9288;SDS011;4683;50.864;12.086;2023-06-14T08:54:33;4.70;;;3.83;;
9288;SDS011;4683;50.864;12.086;2023-06-14T08:57:10;5.00;;;4.60;;
9288;SDS011;4683;50.864;12.086;2023-06-14T08:59:44;5.27;;;4.60;;
9288;SDS011;4683;50.864;12.086;2023-06-14T09:02:18;4.47;;;4.07;;
9288;SDS011;4683;50.864;12.086;2023-06-14T09:04:49;3.97;;;3.60;;
9288;SDS011;4683;50.864;12.086;2023-06-14T09:07:18;5.53;;;4.33;;
9288;SDS011;4683;50.864;12.086;2023-06-14T09:09:47;4.30;;;4.00;;
9288;SDS011;4683;50.864;12.086;2023-06-14T09:12:15;3.83;;;3.43;;
9288;SDS011;4683;50.864;12.086;2023-06-14T09:14:44;5.97;;;5.37;;
9288;SDS011;4683;50.864;12.086;2023-06-14T09:17:13;4.27;;;3.87;;
9288;SDS011;4683;50.864;12.086;2023-06-14T09:19:42;4.00;;;3.67;;
9288;SDS011;4683;50.864;12.086;2023-06-14T09:22:14;2.40;;;2.20;;
9288;SDS011;4683;50.864;12.086;2023-06-14T09:24:44;4.53;;;4.03;;
9288;SDS011;4683;50.864;12.086;2023-06-14T09:27:16;4.43;;;4.03;;
9288;SDS011;4683;50.864;12.086;2023-06-14T09:29:55;4.17;;;3.87;;
9288;SDS011;4683;50.864;12.086;2023-06-14T09:32:24;4.20;;;3.70;;
9288;SDS011;4683;50.864;12.086;2023-06-14T09:34:53;4.17;;;3.80;;
9288;SDS011;4683;50.864;12.086;2023-06-14T09:37:30;4.30;;;3.77;;
9288;SDS011;4683;50.864;12.086;2023-06-14T09:40:00;3.73;;;3.47;;
9288;SDS011;4683;50.864;12.086;2023-06-14T09:42:30;3.60;;;3.30;;
9288;SDS011;4683;50.864;12.086;2023-06-14T09:45:01;4.97;;;4.23;;
9288;SDS011;4683;50.864;12.086;2023-06-14T09:47:36;4.20;;;3.80;;
9288;SDS011;4683;50.864;12.086;2023-06-14T09:50:07;3.13;;;2.93;;
9288;SDS011;4683;50.864;12.086;2023-06-14T09:52:38;4.07;;;3.67;;
9288;SDS011;4683;50.864;12.086;2023-06-14T09:55:11;3.87;;;3.40;;
9288;SDS011;4683;50.864;12.086;2023-06-14T09:57:41;4.10;;;3.70;;
9288;SDS011;4683;50.864;12.086;2023-06-14T10:00:13;4.17;;;3.70;;
9288;SDS011;4683;50.864;12.086;2023-06-14T10:02:46;3.90;;;3.60;;
9288;SDS011;4683;50.864;12.086;2023-06-14T10:05:25;6.17;;;3.83;;
9288;SDS011;4683;50.864;12.086;2023-06-14T10:07:59;5.50;;;4.20;;
9288;SDS011;4683;50.864;12.086;2023-06-14T10:10:31;4.63;;;3.83;;
9288;SDS011;4683;50.864;12.086;2023-06-14T10:13:00;4.13;;;3.80;;
9288;SDS011;4683;50.864;12.086;2023-06-14T10:15:31;4.00;;;3.70;;
9288;SDS011;4683;50.864;12.086;2023-06-14T10:18:10;4.03;;;3.73;;
9288;SDS011;4683;50.864;12.086;2023-06-14T10:20:50;5.07;;;3.73;;
9288;SDS011;4683;50.864;12.086;2023-06-14T10:23:32;5.50;;;3.70;;
9288;SDS011;4683;50.864;12.086;2023-06-14T10:26:06;4.30;;;3.90;;
9288;SDS011;4683;50.864;12.086;2023-06-14T10:28:37;4.57;;;3.80;;
9288;SDS011;4683;50.864;12.086;2023-06-14T10:31:06;4.13;;;3.80;;
9288;SDS011;4683;50.864;12.086;2023-06-14T10:33:36;3.87;;;3.57;;
9288;SDS011;4683;50.864;12.086;2023-06-14T10:36:25;4.30;;;3.90;;
9288;SDS011;4683;50.864;12.086;2023-06-14T10:39:03;3.80;;;3.50;;
9288;SDS011;4683;50.864;12.086;2023-06-14T10:41:35;4.27;;;3.60;;
9288;SDS011;4683;50.864;12.086;2023-06-14T10:47:30;4.43;;;4.03;;
9288;SDS011;4683;50.864;12.086;2023-06-14T10:50:04;3.87;;;3.37;;
9288;SDS011;4683;50.864;12.086;2023-06-14T10:52:34;4.20;;;3.80;;
9288;SDS011;4683;50.864;12.086;2023-06-14T10:55:09;5.10;;;3.57;;
9288;SDS011;4683;50.864;12.086;2023-06-14T10:57:41;4.20;;;3.80;;
9288;SDS011;4683;50.864;12.086;2023-06-14T11:00:13;6.53;;;4.40;;
9288;SDS011;4683;50.864;12.086;2023-06-14T11:02:51;6.43;;;3.80;;
9288;SDS011;4683;50.864;12.086;2023-06-14T11:05:58;4.17;;;3.80;;
9288;SDS011;4683;50.864;12.086;2023-06-14T11:11:59;4.53;;;4.13;;
9288;SDS011;4683;50.864;12.086;2023-06-14T11:14:30;5.00;;;3.77;;
9288;SDS011;4683;50.864;12.086;2023-06-14T11:16:59;4.23;;;3.83;;
9288;SDS011;4683;50.864;12.086;2023-06-14T11:19:28;5.77;;;3.97;;
9288;SDS011;4683;50.864;12.086;2023-06-14T11:21:59;5.13;;;3.77;;
9288;SDS011;4683;50.864;12.086;2023-06-14T11:24:27;4.20;;;3.80;;
9288;SDS011;4683;50.864;12.086;2023-06-14T11:26:56;4.13;;;3.73;;
9288;SDS011;4683;50.864;12.086;2023-06-14T11:29:28;4.17;;;3.77;;
9288;SDS011;4683;50.864;12.086;2023-06-14T11:31:58;5.03;;;3.50;;
9288;SDS011;4683;50.864;12.086;2023-06-14T11:34:27;4.10;;;3.70;;
9288;SDS011;4683;50.864;12.086;2023-06-14T11:36:55;4.03;;;3.67;;
9288;SDS011;4683;50.864;12.086;2023-06-14T11:39:25;3.90;;;3.60;;
9288;SDS011;4683;50.864;12.086;2023-06-14T11:41:54;3.90;;;3.60;;
9288;SDS011;4683;50.864;12.086;2023-06-14T11:44:29;4.53;;;3.57;;
9288;SDS011;4683;50.864;12.086;2023-06-14T11:47:03;3.70;;;3.40;;
9288;SDS011;4683;50.864;12.086;2023-06-14T11:49:35;4.33;;;3.50;;
9288;SDS011;4683;50.864;12.086;2023-06-14T11:52:05;4.37;;;3.70;;
9288;SDS011;4683;50.864;12.086;2023-06-14T11:54:35;4.23;;;3.93;;
9288;SDS011;4683;50.864;12.086;2023-06-14T11:57:04;4.13;;;3.80;;
9288;SDS011;4683;50.864;12.086;2023-06-14T11:59:40;4.30;;;4.00;;
9288;SDS011;4683;50.864;12.086;2023-06-14T12:02:10;3.80;;;3.50;;
9288;SDS011;4683;50.864;12.086;2023-06-14T12:04:42;4.00;;;3.70;;
9288;SDS011;4683;50.864;12.086;2023-06-14T12:07:11;3.80;;;3.50;;
9288;SDS011;4683;50.864;12.086;2023-06-14T12:12:36;4.07;;;3.63;;
9288;SDS011;4683;50.864;12.086;2023-06-14T12:15:09;3.70;;;3.40;;
9288;SDS011;4683;50.864;12.086;2023-06-14T12:17:42;4.60;;;3.57;;
9288;SDS011;4683;50.864;12.086;2023-06-14T12:20:12;3.80;;;3.50;;
9288;SDS011;4683;50.864;12.086;2023-06-14T12:22:50;3.43;;;3.23;;
9288;SDS011;4683;50.864;12.086;2023-06-14T12:25:29;4.53;;;3.47;;
9288;SDS011;4683;50.864;12.086;2023-06-14T12:28:03;3.90;;;3.30;;
9288;SDS011;4683;50.864;12.086;2023-06-14T12:30:36;3.53;;;3.17;;
9288;SDS011;4683;50.864;12.086;2023-06-14T12:33:05;5.07;;;3.87;;
9288;SDS011;4683;50.864;12.086;2023-06-14T12:35:34;3.50;;;3.20;;
9288;SDS011;4683;50.864;12.086;2023-06-14T12:38:04;4.47;;;3.20;;
9288;SDS011;4683;50.864;12.086;2023-06-14T12:40:33;3.73;;;3.40;;
9288;SDS011;4683;50.864;12.086;2023-06-14T12:43:03;3.70;;;3.50;;
9288;SDS011;4683;50.864;12.086;2023-06-14T12:45:32;3.47;;;3.27;;
9288;SDS011;4683;50.864;12.086;2023-06-14T12:48:02;3.50;;;3.20;;
9288;SDS011;4683;50.864;12.086;2023-06-14T12:50:31;3.20;;;2.90;;
9288;SDS011;4683;50.864;12.086;2023-06-14T12:53:00;3.60;;;2.90;;
9288;SDS011;4683;50.864;12.086;2023-06-14T12:55:28;3.30;;;3.00;;
9288;SDS011;4683;50.864;12.086;2023-06-14T12:57:57;3.00;;;2.70;;
9288;SDS011;4683;50.864;12.086;2023-06-14T13:00:25;3.30;;;3.00;;
9288;SDS011;4683;50.864;12.086;2023-06-14T13:02:56;3.33;;;2.93;;
9288;SDS011;4683;50.864;12.086;2023-06-14T13:05:26;3.20;;;2.93;;
9288;SDS011;4683;50.864;12.086;2023-06-14T13:07:54;3.57;;;2.93;;
9288;SDS011;4683;50.864;12.086;2023-06-14T13:10:23;3.20;;;3.00;;
9288;SDS011;4683;50.864;12.086;2023-06-14T13:12:53;3.57;;;3.27;;
9288;SDS011;4683;50.864;12.086;2023-06-14T13:15:23;3.07;;;2.80;;
9288;SDS011;4683;50.864;12.086;2023-06-14T13:17:52;4.00;;;3.00;;
9288;SDS011;4683;50.864;12.086;2023-06-14T13:20:21;3.53;;;3.10;;
9288;SDS011;4683;50.864;12.086;2023-06-14T13:22:51;4.50;;;3.50;;
9288;SDS011;4683;50.864;12.086;2023-06-14T13:25:20;3.40;;;3.20;;
9288;SDS011;4683;50.864;12.086;2023-06-14T13:27:49;3.20;;;3.00;;
9288;SDS011;4683;50.864;12.086;2023-06-14T13:30:17;3.00;;;2.80;;
9288;SDS011;4683;50.864;12.086;2023-06-14T13:32:46;3.30;;;3.10;;
9288;SDS011;4683;50.864;12.086;2023-06-14T13:35:17;4.63;;;4.07;;
9288;SDS011;4683;50.864;12.086;2023-06-14T13:37:46;3.10;;;2.90;;
9288;SDS011;4683;50.864;12.086;2023-06-14T13:40:17;2.90;;;2.70;;
9288;SDS011;4683;50.864;12.086;2023-06-14T13:42:46;3.00;;;2.80;;
9288;SDS011;4683;50.864;12.086;2023-06-14T13:45:15;3.10;;;2.80;;
9288;SDS011;4683;50.864;12.086;2023-06-14T13:47:44;4.17;;;2.70;;
9288;SDS011;4683;50.864;12.086;2023-06-14T13:50:14;3.53;;;2.63;;
9288;SDS011;4683;50.864;12.086;2023-06-14T13:52:43;2.53;;;2.33;;
9288;SDS011;4683;50.864;12.086;2023-06-14T13:55:12;3.00;;;2.80;;
9288;SDS011;4683;50.864;12.086;2023-06-14T13:57:42;3.10;;;2.80;;
9288;SDS011;4683;50.864;12.086;2023-06-14T14:00:12;3.50;;;3.20;;
9288;SDS011;4683;50.864;12.086;2023-06-14T14:02:41;3.77;;;2.87;;
9288;SDS011;4683;50.864;12.086;2023-06-14T14:05:10;3.17;;;2.87;;
9288;SDS011;4683;50.864;12.086;2023-06-14T14:07:38;3.77;;;2.97;;
9288;SDS011;4683;50.864;12.086;2023-06-14T14:10:07;3.83;;;2.60;;
9288;SDS011;4683;50.864;12.086;2023-06-14T14:12:39;3.23;;;2.63;;
9288;SDS011;4683;50.864;12.086;2023-06-14T14:15:09;3.10;;;2.80;;
9288;SDS011;4683;50.864;12.086;2023-06-14T14:17:40;3.03;;;2.83;;
9288;SDS011;4683;50.864;12.086;2023-06-14T14:20:10;2.40;;;2.27;;
9288;SDS011;4683;50.864;12.086;2023-06-14T14:22:41;2.50;;;2.40;;
9288;SDS011;4683;50.864;12.086;2023-06-14T14:25:09;2.77;;;2.30;;
9288;SDS011;4683;50.864;12.086;2023-06-14T14:27:38;3.33;;;3.10;;
9288;SDS011;4683;50.864;12.086;2023-06-14T14:30:08;2.67;;;2.47;;
9288;SDS011;4683;50.864;12.086;2023-06-14T14:32:39;3.83;;;2.90;;
9288;SDS011;4683;50.864;12.086;2023-06-14T14:35:09;2.77;;;2.57;;
9288;SDS011;4683;50.864;12.086;2023-06-14T14:37:37;2.50;;;2.40;;
9288;SDS011;4683;50.864;12.086;2023-06-14T14:40:06;2.67;;;2.47;;
9288;SDS011;4683;50.864;12.086;2023-06-14T14:42:36;2.77;;;2.50;;
9288;SDS011;4683;50.864;12.086;2023-06-14T14:45:05;3.13;;;2.80;;
9288;SDS011;4683;50.864;12.086;2023-06-14T14:47:36;2.87;;;2.67;;
9288;SDS011;4683;50.864;12.086;2023-06-14T14:50:05;2.97;;;2.77;;
9288;SDS011;4683;50.864;12.086;2023-06-14T14:52:35;3.83;;;3.00;;
9288;SDS011;4683;50.864;12.086;2023-06-14T14:55:04;3.97;;;2.83;;
9288;SDS011;4683;50.864;12.086;2023-06-14T14:57:34;3.17;;;2.90;;
9288;SDS011;4683;50.864;12.086;2023-06-14T15:00:04;2.93;;;2.73;;
9288;SDS011;4683;50.864;12.086;2023-06-14T15:02:35;3.93;;;3.30;;
9288;SDS011;4683;50.864;12.086;2023-06-14T15:05:04;3.00;;;2.80;;
9288;SDS011;4683;50.864;12.086;2023-06-14T15:07:33;4.07;;;3.00;;
9288;SDS011;4683;50.864;12.086;2023-06-14T15:10:01;2.97;;;2.77;;
9288;SDS011;4683;50.864;12.086;2023-06-14T15:12:31;2.90;;;2.70;;
9288;SDS011;4683;50.864;12.086;2023-06-14T15:14:59;3.43;;;2.90;;
9288;SDS011;4683;50.864;12.086;2023-06-14T15:17:29;6.80;;;2.87;;
9288;SDS011;4683;50.864;12.086;2023-06-14T15:19:58;4.10;;;3.70;;
9288;SDS011;4683;50.864;12.086;2023-06-14T15:22:27;3.37;;;3.17;;
9288;SDS011;4683;50.864;12.086;2023-06-14T15:24:56;2.90;;;2.70;;
9288;SDS011;4683;50.864;12.086;2023-06-14T15:27:24;3.80;;;2.90;;
9288;SDS011;4683;50.864;12.086;2023-06-14T15:29:53;3.30;;;3.10;;
9288;SDS011;4683;50.864;12.086;2023-06-14T15:32:22;4.00;;;3.40;;
9288;SDS011;4683;50.864;12.086;2023-06-14T15:34:53;2.90;;;2.70;;
9288;SDS011;4683;50.864;12.086;2023-06-14T15:37:21;3.30;;;3.00;;